PWSweather.com
Personal Weather Stations
Station Observations
KJ4AJP
Beautiful Downtown Gardner, Martin, TN 38237

Beautiful Downtown GardnerMartin, TN 38237

Lat: 36.358, Lon: -88.8994

Elevation: 384.3

Station Type: TP1080WC

http://weather.mambm.com/

High Low Average
Temperature 63.3°F17.4°C 31.6°F-0.2°C 46.8°F8.2°C
Dew Point 49.2°F9.6°C 29.7°F-1.3°C 40.1°F4.5°C
Winds 11.4 mph 18.3 kmh Calm Calm 3.0 mph S4.8 kmh S
Wind Gusts 19.0 mph30.6 kmh 0.7 mph1.1 kmh 7.0 mph11.3 kmh
Humidity 98% 58% 79%
Pressure 30.29 in1025.7 mb 30.00 in1015.9 mb -
Precipitation 0.11 in2.8 mm - -
Hour Temp Dew Point Humidity Winds Wind Gusts Pressure Precip Precip Rate Daily Precip Total
12:00 AM 32.0°F0.0°C 29.7°F-1.3°C 91% 1.6 mph SE2.6 kmh SE 2.2 mph3.5 kmh 30.29 in1025.7 mb 0.00 in0.0 mm 0.00 in0.0 mm 0.00 in0.0 mm
12:15 AM 32.2°F0.1°C 29.9°F-1.2°C 91% 0.7 mph SE1.1 kmh SE 2.2 mph3.5 kmh 30.29 in1025.7 mb 0.00 in0.0 mm 0.00 in0.0 mm 0.00 in0.0 mm
12:30 AM 32.0°F0.0°C 29.7°F-1.3°C 91% 0.7 mph SE1.1 kmh SE 2.2 mph3.5 kmh 30.28 in1025.4 mb 0.00 in0.0 mm 0.00 in0.0 mm 0.00 in0.0 mm
12:45 AM 32.2°F0.1°C 30.1°F-1.1°C 92% 1.6 mph SSE2.6 kmh SSE 3.1 mph5.0 kmh 30.28 in1025.4 mb 0.00 in0.0 mm 0.00 in0.0 mm 0.00 in0.0 mm
01:00 AM 32.2°F0.1°C 29.9°F-1.2°C 91% 2.2 mph S3.5 kmh S 4.5 mph7.2 kmh 30.27 in1025.1 mb 0.00 in0.0 mm 0.00 in0.0 mm 0.00 in0.0 mm
01:15 AM 32.2°F0.1°C 29.9°F-1.2°C 91% 2.2 mph SSE3.5 kmh SSE 5.4 mph8.7 kmh 30.27 in1025.1 mb 0.00 in0.0 mm 0.00 in0.0 mm 0.00 in0.0 mm
01:30 AM 32.0°F0.0°C 29.7°F-1.3°C 91% 2.2 mph SSE3.5 kmh SSE 4.5 mph7.2 kmh 30.27 in1025.1 mb 0.00 in0.0 mm 0.00 in0.0 mm 0.00 in0.0 mm
01:45 AM 32.0°F0.0°C 30.0°F-1.1°C 92% 1.6 mph SSE2.6 kmh SSE 4.5 mph7.2 kmh 30.25 in1024.4 mb 0.00 in0.0 mm 0.00 in0.0 mm 0.00 in0.0 mm
02:00 AM 32.0°F0.0°C 29.7°F-1.3°C 91% 1.6 mph SSE2.6 kmh SSE 5.4 mph8.7 kmh 30.26 in1024.7 mb 0.00 in0.0 mm 0.00 in0.0 mm 0.00 in0.0 mm
02:15 AM 32.0°F0.0°C 30.0°F-1.1°C 92% 1.6 mph SSE2.6 kmh SSE 5.4 mph8.7 kmh 30.25 in1024.4 mb 0.00 in0.0 mm 0.00 in0.0 mm 0.00 in0.0 mm
02:30 AM 32.0°F0.0°C 30.0°F-1.1°C 92% 1.6 mph SSE2.6 kmh SSE 6.0 mph9.7 kmh 30.25 in1024.4 mb 0.00 in0.0 mm 0.00 in0.0 mm 0.00 in0.0 mm
02:45 AM 32.2°F0.1°C 30.1°F-1.1°C 92% 1.6 mph S2.6 kmh S 5.4 mph8.7 kmh 30.24 in1024.0 mb 0.00 in0.0 mm 0.00 in0.0 mm 0.00 in0.0 mm
03:00 AM 32.4°F0.2°C 30.3°F-0.9°C 92% 2.2 mph S3.5 kmh S 6.0 mph9.7 kmh 30.23 in1023.7 mb 0.00 in0.0 mm 0.00 in0.0 mm 0.00 in0.0 mm
03:15 AM 32.4°F0.2°C 30.3°F-0.9°C 92% 3.1 mph S5.0 kmh S 6.0 mph9.7 kmh 30.23 in1023.7 mb 0.00 in0.0 mm 0.00 in0.0 mm 0.00 in0.0 mm
03:30 AM 32.4°F0.2°C 30.3°F-0.9°C 92% 3.1 mph S5.0 kmh S 5.4 mph8.7 kmh 30.22 in1023.4 mb 0.00 in0.0 mm 0.00 in0.0 mm 0.00 in0.0 mm
03:45 AM 32.2°F0.1°C 30.1°F-1.1°C 92% 1.6 mph SSE2.6 kmh SSE 3.8 mph6.1 kmh 30.22 in1023.4 mb 0.00 in0.0 mm 0.00 in0.0 mm 0.00 in0.0 mm
04:00 AM 32.2°F0.1°C 30.1°F-1.1°C 92% 1.6 mph SE2.6 kmh SE 3.1 mph5.0 kmh 30.22 in1023.4 mb 0.00 in0.0 mm 0.00 in0.0 mm 0.00 in0.0 mm
04:15 AM 32.4°F0.2°C 30.3°F-0.9°C 92% 0.7 mph SE1.1 kmh SE 2.2 mph3.5 kmh 30.22 in1023.4 mb 0.00 in0.0 mm 0.00 in0.0 mm 0.00 in0.0 mm
04:30 AM 32.2°F0.1°C 30.1°F-1.1°C 92% 0.7 mph S1.1 kmh S 2.2 mph3.5 kmh 30.23 in1023.7 mb 0.00 in0.0 mm 0.00 in0.0 mm 0.00 in0.0 mm
04:45 AM 32.2°F0.1°C 30.1°F-1.1°C 92% 1.6 mph SE2.6 kmh SE 2.2 mph3.5 kmh 30.23 in1023.7 mb 0.00 in0.0 mm 0.00 in0.0 mm 0.00 in0.0 mm
05:00 AM 32.2°F0.1°C 30.1°F-1.1°C 92% 0.7 mph SE1.1 kmh SE 3.1 mph5.0 kmh 30.23 in1023.7 mb 0.00 in0.0 mm 0.00 in0.0 mm 0.00 in0.0 mm
05:15 AM 32.0°F0.0°C 30.0°F-1.1°C 92% 0.7 mph SSE1.1 kmh SSE 3.8 mph6.1 kmh 30.23 in1023.7 mb 0.00 in0.0 mm 0.00 in0.0 mm 0.00 in0.0 mm
05:30 AM 32.2°F0.1°C 30.4°F-0.9°C 93% 1.6 mph SE2.6 kmh SE 3.1 mph5.0 kmh 30.24 in1024.0 mb 0.00 in0.0 mm 0.00 in0.0 mm 0.00 in0.0 mm
05:45 AM 32.2°F0.1°C 30.4°F-0.9°C 93% Calm Calm 3.8 mph6.1 kmh 30.23 in1023.7 mb 0.00 in0.0 mm 0.00 in0.0 mm 0.00 in0.0 mm
06:00 AM 32.2°F0.1°C 30.4°F-0.9°C 93% 1.6 mph SSE2.6 kmh SSE 3.8 mph6.1 kmh 30.24 in1024.0 mb 0.00 in0.0 mm 0.00 in0.0 mm 0.00 in0.0 mm
06:15 AM 32.2°F0.1°C 30.4°F-0.9°C 93% 1.6 mph SE2.6 kmh SE 5.4 mph8.7 kmh 30.24 in1024.0 mb 0.00 in0.0 mm 0.00 in0.0 mm 0.00 in0.0 mm
06:30 AM 32.2°F0.1°C 30.4°F-0.9°C 93% Calm Calm 3.8 mph6.1 kmh 30.24 in1024.0 mb 0.00 in0.0 mm 0.00 in0.0 mm 0.00 in0.0 mm
06:45 AM 31.8°F-0.1°C 30.0°F-1.1°C 93% Calm Calm 3.8 mph6.1 kmh 30.25 in1024.4 mb 0.00 in0.0 mm 0.00 in0.0 mm 0.00 in0.0 mm
07:00 AM 31.8°F-0.1°C 30.0°F-1.1°C 93% Calm Calm 1.6 mph2.6 kmh 30.26 in1024.7 mb 0.00 in0.0 mm 0.00 in0.0 mm 0.00 in0.0 mm
07:15 AM 31.6°F-0.2°C 29.9°F-1.2°C 93% 0.7 mph SE1.1 kmh SE 2.2 mph3.5 kmh 30.25 in1024.4 mb 0.00 in0.0 mm 0.00 in0.0 mm 0.00 in0.0 mm
07:30 AM 32.0°F0.0°C 30.5°F-0.8°C 94% 0.7 mph SE1.1 kmh SE 2.2 mph3.5 kmh 30.26 in1024.7 mb 0.00 in0.0 mm 0.00 in0.0 mm 0.00 in0.0 mm
07:45 AM 33.8°F1.0°C 32.5°F0.3°C 95% 1.6 mph SSE2.6 kmh SSE 4.5 mph7.2 kmh 30.26 in1024.7 mb 0.00 in0.0 mm 0.00 in0.0 mm 0.00 in0.0 mm
08:00 AM 37.0°F2.8°C 35.2°F1.8°C 93% 2.2 mph SE3.5 kmh SE 3.8 mph6.1 kmh 30.25 in1024.4 mb 0.00 in0.0 mm 0.00 in0.0 mm 0.00 in0.0 mm
08:15 AM 39.4°F4.1°C 36.7°F2.6°C 90% 1.6 mph SSE2.6 kmh SSE 4.5 mph7.2 kmh 30.25 in1024.4 mb 0.00 in0.0 mm 0.00 in0.0 mm 0.00 in0.0 mm
08:30 AM 41.5°F5.3°C 38.0°F3.3°C 87% 3.1 mph SSE5.0 kmh SSE 7.6 mph12.2 kmh 30.25 in1024.4 mb 0.00 in0.0 mm 0.00 in0.0 mm 0.00 in0.0 mm
08:45 AM 43.3°F6.3°C 38.5°F3.6°C 83% 4.5 mph S7.2 kmh S 14.5 mph23.3 kmh 30.24 in1024.0 mb 0.00 in0.0 mm 0.00 in0.0 mm 0.00 in0.0 mm
09:00 AM 44.6°F7.0°C 39.1°F3.9°C 81% 4.5 mph S7.2 kmh S 9.8 mph15.8 kmh 30.24 in1024.0 mb 0.00 in0.0 mm 0.00 in0.0 mm 0.00 in0.0 mm
09:15 AM 46.2°F7.9°C 40.1°F4.5°C 79% 6.0 mph S9.7 kmh S 13.0 mph20.9 kmh 30.24 in1024.0 mb 0.00 in0.0 mm 0.00 in0.0 mm 0.00 in0.0 mm
09:30 AM 48.0°F8.9°C 41.2°F5.1°C 77% 5.4 mph S8.7 kmh S 9.2 mph14.8 kmh 30.24 in1024.0 mb 0.00 in0.0 mm 0.00 in0.0 mm 0.00 in0.0 mm
09:45 AM 49.3°F9.6°C 41.4°F5.2°C 74% 9.8 mph S15.8 kmh S 13.6 mph21.9 kmh 30.23 in1023.7 mb 0.00 in0.0 mm 0.00 in0.0 mm 0.00 in0.0 mm
10:00 AM 50.5°F10.3°C 41.9°F5.5°C 72% 9.2 mph S14.8 kmh S 15.2 mph24.5 kmh 30.23 in1023.7 mb 0.00 in0.0 mm 0.00 in0.0 mm 0.00 in0.0 mm
10:15 AM 51.8°F11.0°C 43.4°F6.3°C 73% 6.0 mph S9.7 kmh S 14.5 mph23.3 kmh 30.23 in1023.7 mb 0.00 in0.0 mm 0.00 in0.0 mm 0.00 in0.0 mm
10:30 AM 52.3°F11.3°C 42.9°F6.1°C 70% 6.0 mph S9.7 kmh S 14.5 mph23.3 kmh 30.23 in1023.7 mb 0.00 in0.0 mm 0.00 in0.0 mm 0.00 in0.0 mm
10:45 AM 53.2°F11.8°C 43.3°F6.3°C 69% 9.8 mph S15.8 kmh S 13.6 mph21.9 kmh 30.22 in1023.4 mb 0.00 in0.0 mm 0.00 in0.0 mm 0.00 in0.0 mm
11:00 AM 54.7°F12.6°C 44.7°F7.1°C 69% 7.6 mph S12.2 kmh S 15.2 mph24.5 kmh 30.20 in1022.7 mb 0.00 in0.0 mm 0.00 in0.0 mm 0.00 in0.0 mm
11:15 AM 55.9°F13.3°C 45.5°F7.5°C 68% 6.0 mph S9.7 kmh S 16.8 mph27.0 kmh 30.19 in1022.4 mb 0.00 in0.0 mm 0.00 in0.0 mm 0.00 in0.0 mm
11:30 AM 57.4°F14.1°C 46.1°F7.8°C 66% 6.0 mph SW9.7 kmh SW 12.1 mph19.5 kmh 30.19 in1022.4 mb 0.00 in0.0 mm 0.00 in0.0 mm 0.00 in0.0 mm
11:45 AM 58.3°F14.6°C 46.6°F8.1°C 65% 4.5 mph SW7.2 kmh SW 9.2 mph14.8 kmh 30.19 in1022.4 mb 0.00 in0.0 mm 0.00 in0.0 mm 0.00 in0.0 mm
12:00 PM 59.4°F15.2°C 47.6°F8.7°C 65% 4.5 mph SW7.2 kmh SW 9.2 mph14.8 kmh 30.17 in1021.7 mb 0.00 in0.0 mm 0.00 in0.0 mm 0.00 in0.0 mm
12:15 PM 60.3°F15.7°C 47.2°F8.4°C 62% 6.0 mph SW9.7 kmh SW 13.6 mph21.9 kmh 30.16 in1021.3 mb 0.00 in0.0 mm 0.00 in0.0 mm 0.00 in0.0 mm
12:30 PM 60.8°F16.0°C 46.4°F8.0°C 59% 9.2 mph SSW14.8 kmh SSW 19.0 mph30.6 kmh 30.16 in1021.3 mb 0.00 in0.0 mm 0.00 in0.0 mm 0.00 in0.0 mm
12:45 PM 61.0°F16.1°C 46.1°F7.8°C 58% 11.4 mph SW18.3 kmh SW 17.4 mph28.0 kmh 30.14 in1020.7 mb 0.00 in0.0 mm 0.00 in0.0 mm 0.00 in0.0 mm
01:00 PM 61.7°F16.5°C 47.7°F8.7°C 60% 6.0 mph S9.7 kmh S 13.6 mph21.9 kmh 30.13 in1020.3 mb 0.00 in0.0 mm 0.00 in0.0 mm 0.00 in0.0 mm
01:15 PM 62.1°F16.7°C 47.6°F8.7°C 59% 8.3 mph SSW13.4 kmh SSW 15.9 mph25.6 kmh 30.11 in1019.6 mb 0.00 in0.0 mm 0.00 in0.0 mm 0.00 in0.0 mm
01:30 PM 62.6°F17.0°C 47.6°F8.7°C 58% 4.5 mph S7.2 kmh S 12.1 mph19.5 kmh 30.11 in1019.6 mb 0.00 in0.0 mm 0.00 in0.0 mm 0.00 in0.0 mm
01:45 PM 62.8°F17.1°C 48.3°F9.1°C 59% 5.4 mph S8.7 kmh S 13.6 mph21.9 kmh 30.10 in1019.3 mb 0.00 in0.0 mm 0.00 in0.0 mm 0.00 in0.0 mm
02:00 PM 63.3°F17.4°C 49.2°F9.6°C 60% 3.1 mph S5.0 kmh S 13.0 mph20.9 kmh 30.10 in1019.3 mb 0.00 in0.0 mm 0.00 in0.0 mm 0.00 in0.0 mm
02:15 PM 63.3°F17.4°C 48.3°F9.1°C 58% 5.4 mph SW8.7 kmh SW 8.3 mph13.4 kmh 30.09 in1019.0 mb 0.00 in0.0 mm 0.00 in0.0 mm 0.00 in0.0 mm
02:30 PM 62.8°F17.1°C 48.3°F9.1°C 59% 3.8 mph S6.1 kmh S 9.2 mph14.8 kmh 30.08 in1018.6 mb 0.00 in0.0 mm 0.00 in0.0 mm 0.00 in0.0 mm
02:45 PM 61.9°F16.6°C 47.9°F8.8°C 60% 2.2 mph SW3.5 kmh SW 9.2 mph14.8 kmh 30.08 in1018.6 mb 0.00 in0.0 mm 0.00 in0.0 mm 0.00 in0.0 mm
03:00 PM 61.2°F16.2°C 47.6°F8.7°C 61% 4.5 mph S7.2 kmh S 9.8 mph15.8 kmh 30.07 in1018.3 mb 0.00 in0.0 mm 0.00 in0.0 mm 0.00 in0.0 mm
03:15 PM 60.8°F16.0°C 47.7°F8.7°C 62% 5.4 mph S8.7 kmh S 9.8 mph15.8 kmh 30.07 in1018.3 mb 0.00 in0.0 mm 0.00 in0.0 mm 0.00 in0.0 mm
03:30 PM 60.4°F15.8°C 47.4°F8.6°C 62% 3.8 mph S6.1 kmh S 13.6 mph21.9 kmh 30.07 in1018.3 mb 0.00 in0.0 mm 0.00 in0.0 mm 0.00 in0.0 mm
03:45 PM 60.3°F15.7°C 47.2°F8.4°C 62% 3.8 mph S6.1 kmh S 9.8 mph15.8 kmh 30.06 in1017.9 mb 0.00 in0.0 mm 0.00 in0.0 mm 0.00 in0.0 mm
04:00 PM 60.3°F15.7°C 47.2°F8.4°C 62% 2.2 mph S3.5 kmh S 9.2 mph14.8 kmh 30.06 in1017.9 mb 0.00 in0.0 mm 0.00 in0.0 mm 0.00 in0.0 mm
04:15 PM 60.4°F15.8°C 47.4°F8.6°C 62% 6.0 mph S9.7 kmh S 9.2 mph14.8 kmh 30.06 in1017.9 mb 0.00 in0.0 mm 0.00 in0.0 mm 0.00 in0.0 mm
04:30 PM 60.6°F15.9°C 47.1°F8.4°C 61% 3.1 mph S5.0 kmh S 10.7 mph17.2 kmh 30.06 in1017.9 mb 0.00 in0.0 mm 0.00 in0.0 mm 0.00 in0.0 mm
04:45 PM 59.9°F15.5°C 46.9°F8.3°C 62% 3.1 mph S5.0 kmh S 8.3 mph13.4 kmh 30.05 in1017.6 mb 0.00 in0.0 mm 0.00 in0.0 mm 0.00 in0.0 mm
05:00 PM 59.2°F15.1°C 47.0°F8.3°C 64% 1.6 mph SSW2.6 kmh SSW 4.5 mph7.2 kmh 30.05 in1017.6 mb 0.00 in0.0 mm 0.00 in0.0 mm 0.00 in0.0 mm
05:15 PM 58.3°F14.6°C 47.0°F8.3°C 66% 0.7 mph S1.1 kmh S 3.1 mph5.0 kmh 30.05 in1017.6 mb 0.00 in0.0 mm 0.00 in0.0 mm 0.00 in0.0 mm
05:30 PM 57.6°F14.2°C 46.7°F8.2°C 67% Calm Calm 3.1 mph5.0 kmh 30.05 in1017.6 mb 0.00 in0.0 mm 0.00 in0.0 mm 0.00 in0.0 mm
05:45 PM 56.7°F13.7°C 45.8°F7.7°C 67% 1.6 mph S2.6 kmh S 3.1 mph5.0 kmh 30.05 in1017.6 mb 0.00 in0.0 mm 0.00 in0.0 mm 0.00 in0.0 mm
06:00 PM 55.6°F13.1°C 45.2°F7.3°C 68% Calm Calm 2.2 mph3.5 kmh 30.05 in1017.6 mb 0.00 in0.0 mm 0.00 in0.0 mm 0.00 in0.0 mm
06:15 PM 54.1°F12.3°C 44.2°F6.8°C 69% 0.7 mph SE1.1 kmh SE 2.2 mph3.5 kmh 30.04 in1017.3 mb 0.00 in0.0 mm 0.00 in0.0 mm 0.00 in0.0 mm
06:30 PM 52.5°F11.4°C 43.4°F6.3°C 71% 0.7 mph SE1.1 kmh SE 1.6 mph2.6 kmh 30.04 in1017.3 mb 0.00 in0.0 mm 0.00 in0.0 mm 0.00 in0.0 mm
06:45 PM 51.6°F10.9°C 42.9°F6.1°C 72% Calm Calm 0.7 mph1.1 kmh 30.04 in1017.3 mb 0.00 in0.0 mm 0.00 in0.0 mm 0.00 in0.0 mm
07:00 PM 51.1°F10.6°C 42.7°F5.9°C 73% Calm Calm 2.2 mph3.5 kmh 30.04 in1017.3 mb 0.00 in0.0 mm 0.00 in0.0 mm 0.00 in0.0 mm
07:15 PM 50.7°F10.4°C 43.1°F6.2°C 75% Calm Calm 1.6 mph2.6 kmh 30.04 in1017.3 mb 0.00 in0.0 mm 0.00 in0.0 mm 0.00 in0.0 mm
07:30 PM 50.4°F10.2°C 43.1°F6.2°C 76% Calm Calm 1.6 mph2.6 kmh 30.04 in1017.3 mb 0.00 in0.0 mm 0.00 in0.0 mm 0.00 in0.0 mm
07:45 PM 50.2°F10.1°C 43.3°F6.3°C 77% 0.7 mph SE1.1 kmh SE 3.1 mph5.0 kmh 30.04 in1017.3 mb 0.00 in0.0 mm 0.00 in0.0 mm 0.00 in0.0 mm
08:00 PM 50.0°F10.0°C 43.4°F6.3°C 78% 1.6 mph SE2.6 kmh SE 3.8 mph6.1 kmh 30.03 in1016.9 mb 0.00 in0.0 mm 0.00 in0.0 mm 0.00 in0.0 mm
08:15 PM 50.0°F10.0°C 43.1°F6.2°C 77% 0.7 mph SE1.1 kmh SE 5.4 mph8.7 kmh 30.03 in1016.9 mb 0.00 in0.0 mm 0.00 in0.0 mm 0.00 in0.0 mm
08:30 PM 50.4°F10.2°C 43.4°F6.3°C 77% Calm Calm 3.8 mph6.1 kmh 30.03 in1016.9 mb 0.00 in0.0 mm 0.00 in0.0 mm 0.00 in0.0 mm
08:45 PM 50.5°F10.3°C 43.6°F6.4°C 77% 2.2 mph ESE3.5 kmh ESE 3.8 mph6.1 kmh 30.04 in1017.3 mb 0.00 in0.0 mm 0.00 in0.0 mm 0.00 in0.0 mm
09:00 PM 50.9°F10.5°C 43.6°F6.4°C 76% 0.7 mph SE1.1 kmh SE 3.8 mph6.1 kmh 30.02 in1016.6 mb 0.00 in0.0 mm 0.00 in0.0 mm 0.00 in0.0 mm
09:15 PM 51.4°F10.8°C 44.5°F6.9°C 77% Calm Calm 3.1 mph5.0 kmh 30.03 in1016.9 mb 0.00 in0.0 mm 0.00 in0.0 mm 0.00 in0.0 mm
09:30 PM 51.6°F10.9°C 44.7°F7.1°C 77% 1.6 mph SSE2.6 kmh SSE 3.1 mph5.0 kmh 30.02 in1016.6 mb 0.00 in0.0 mm 0.00 in0.0 mm 0.00 in0.0 mm
09:45 PM 52.2°F11.2°C 45.2°F7.3°C 77% 1.6 mph SE2.6 kmh SE 4.5 mph7.2 kmh 30.02 in1016.6 mb 0.00 in0.0 mm 0.00 in0.0 mm 0.00 in0.0 mm
10:00 PM 52.2°F11.2°C 46.5°F8.1°C 81% Calm Calm 5.4 mph8.7 kmh 30.04 in1017.3 mb 0.01 in0.3 mm 0.01 in0.3 mm 0.01 in0.3 mm
10:15 PM 51.3°F10.7°C 46.9°F8.3°C 85% Calm Calm 1.6 mph2.6 kmh 30.04 in1017.3 mb 0.01 in0.3 mm 0.00 in0.0 mm 0.01 in0.3 mm
10:30 PM 50.5°F10.3°C 47.1°F8.4°C 88% 1.6 mph W2.6 kmh W 3.1 mph5.0 kmh 30.04 in1017.3 mb 0.04 in1.0 mm 0.12 in3.0 mm 0.04 in1.0 mm
10:45 PM 50.0°F10.0°C 47.5°F8.6°C 91% Calm Calm 3.1 mph5.0 kmh 30.04 in1017.3 mb 0.06 in1.5 mm 0.08 in2.0 mm 0.06 in1.5 mm
11:00 PM 49.5°F9.7°C 47.5°F8.6°C 93% 0.7 mph SE1.1 kmh SE 3.8 mph6.1 kmh 30.03 in1016.9 mb 0.07 in1.8 mm 0.01 in0.3 mm 0.08 in2.0 mm
11:15 PM 49.1°F9.5°C 47.7°F8.7°C 95% 0.7 mph SW1.1 kmh SW 2.2 mph3.5 kmh 30.03 in1016.9 mb 0.08 in2.0 mm 0.04 in1.0 mm 0.09 in2.3 mm
11:30 PM 48.9°F9.4°C 48.1°F8.9°C 97% Calm Calm 3.1 mph5.0 kmh 30.02 in1016.6 mb 0.07 in1.8 mm 0.00 in0.0 mm 0.11 in2.8 mm
11:45 PM 48.7°F9.3°C 48.2°F9.0°C 98% Calm Calm 1.6 mph2.6 kmh 30.00 in1015.9 mb 0.05 in1.3 mm 0.00 in0.0 mm 0.11 in2.8 mm